Time;durP1;ratioP1;P1;durP2;ratioP2;P2;SDS_P1;SDS_P2;PMS_P1;PMS_P2;Temp;Humidity;BMP_temperature;BMP_pressure;BME280_temperature;BME280_humidity;BME280_pressure;Samples;Min_cycle;Max_cycle;Signal;HPM_P1;HPM_P2
2022/05/21 00:01:57;;;;;;;5.63;2.30;;;;;;;13.93;68.24;97473.50;5085756;28;20184;-83
2022/05/21 00:04:26;;;;;;;3.40;2.20;;;;;;;14.20;67.85;97492.06;5068394;28;20279;-85
2022/05/21 00:06:55;;;;;;;3.63;2.00;;;;;;;14.34;66.08;97490.44;5078574;28;20879;-84
2022/05/21 00:09:22;;;;;;;3.17;2.30;;;;;;;14.04;65.61;97473.78;5084688;28;20193;-84
2022/05/21 00:11:49;;;;;;;4.50;2.60;;;;;;;14.25;65.34;97501.31;5084697;28;20223;-84
2022/05/21 00:14:16;;;;;;;2.00;1.90;;;;;;;13.89;65.51;97454.59;5085965;28;20196;-84
2022/05/21 00:16:43;;;;;;;2.80;2.23;;;;;;;14.15;64.35;97483.66;5091328;28;20192;-85
2022/05/21 00:19:10;;;;;;;4.20;2.13;;;;;;;14.12;63.84;97452.53;5095743;28;20256;-83
2022/05/21 00:21:38;;;;;;;3.60;2.37;;;;;;;14.40;63.80;97486.66;5096262;28;20184;-84
2022/05/21 00:24:05;;;;;;;6.83;2.67;;;;;;;14.41;63.00;97488.34;5080314;28;20243;-84
2022/05/21 00:26:34;;;;;;;2.70;2.30;;;;;;;14.18;63.23;97473.91;5098644;28;20195;-85
2022/05/21 00:29:00;;;;;;;4.17;2.47;;;;;;;14.23;63.37;97500.56;5098973;28;20200;-84
2022/05/21 00:31:28;;;;;;;4.93;2.40;;;;;;;14.05;63.42;97459.00;5097655;28;20252;-83
2022/05/21 00:33:57;;;;;;;2.57;2.17;;;;;;;14.14;62.87;97493.22;5079956;28;20249;-83
2022/05/21 00:36:24;;;;;;;4.27;2.37;;;;;;;13.80;63.51;97459.47;5097510;28;20198;-84
2022/05/21 00:38:51;;;;;;;4.83;2.40;;;;;;;13.95;64.00;97484.69;5097441;28;20176;-84
2022/05/21 00:41:20;;;;;;;3.87;2.30;;;;;;;13.65;64.49;97487.13;5097333;28;20181;-84
2022/05/21 00:43:56;;;;;;;3.87;2.50;;;;;;;13.26;65.88;97457.88;5081133;28;20218;-84
2022/05/21 00:46:33;;;;;;;4.70;2.47;;;;;;;13.39;66.40;97473.72;5081070;28;20194;-84
2022/05/21 00:49:03;;;;;;;4.70;2.40;;;;;;;13.54;65.66;97478.19;5098784;28;20171;-84
2022/05/21 00:51:40;;;;;;;2.40;2.20;;;;;;;13.53;64.83;97442.66;5098661;28;20197;-84
2022/05/21 00:54:08;;;;;;;2.97;2.20;;;;;;;13.58;64.51;97433.69;5098089;28;20169;-84
2022/05/21 00:56:44;;;;;;;5.23;2.20;;;;;;;13.54;64.57;97475.56;5098430;28;20184;-84
2022/05/21 01:02:02;;;;;;;2.70;2.30;;;;;;;13.06;65.08;97409.44;5081358;28;20173;-84
2022/05/21 01:04:32;;;;;;;2.90;2.33;;;;;;;13.35;65.79;97464.41;5081292;28;20296;-85
2022/05/21 01:07:01;;;;;;;4.67;2.80;;;;;;;12.92;66.21;97437.84;5096927;28;20180;-83
2022/05/21 01:09:28;;;;;;;5.57;2.53;;;;;;;12.67;66.87;97408.78;5098152;28;20213;-83
2022/05/21 01:11:56;;;;;;;4.00;2.57;;;;;;;12.85;67.80;97465.09;5098094;28;20178;-84
2022/05/21 01:14:23;;;;;;;2.30;1.87;;;;;;;12.70;68.04;97463.19;5081374;28;20212;-85
2022/05/21 01:16:51;;;;;;;3.40;2.57;;;;;;;12.42;68.73;97415.22;5098085;28;20846;-86
2022/05/21 01:19:18;;;;;;;5.53;2.67;;;;;;;12.59;68.63;97454.25;5097938;28;20217;-85
2022/05/21 01:21:47;;;;;;;5.30;2.47;;;;;;;12.32;68.92;97420.00;5097883;28;20170;-85
2022/05/21 01:24:16;;;;;;;4.03;2.60;;;;;;;12.54;69.03;97440.63;5097507;28;20203;-84
2022/05/21 01:26:44;;;;;;;5.00;2.53;;;;;;;12.55;68.26;97422.34;5098068;28;20236;-84
2022/05/21 01:29:19;;;;;;;2.70;2.37;;;;;;;12.72;67.42;97442.34;5097436;28;20170;-85
2022/05/21 01:31:53;;;;;;;4.50;2.80;;;;;;;12.52;67.30;97417.31;5080274;28;20191;-84
2022/05/21 01:34:21;;;;;;;4.37;2.67;;;;;;;12.47;68.52;97452.22;5080327;28;20196;-83
2022/05/21 01:36:48;;;;;;;3.00;2.30;;;;;;;12.01;68.66;97396.38;5080337;28;20183;-89
2022/05/21 01:39:15;;;;;;;3.63;3.13;;;;;;;12.11;69.42;97426.19;5096898;28;20171;-85
2022/05/21 01:41:46;;;;;;;4.80;3.30;;;;;;;12.21;69.31;97443.88;5094101;28;20254;-94
2022/05/21 01:46:58;;;;;;;4.87;2.50;;;;;;;11.89;70.66;97451.44;5079051;28;20188;-86
2022/05/21 01:49:25;;;;;;;4.73;2.80;;;;;;;11.64;71.11;97419.66;5096030;28;20174;-85
2022/05/21 01:51:53;;;;;;;4.47;2.80;;;;;;;11.93;70.93;97450.38;5094213;28;20206;-87
2022/05/21 01:56:59;;;;;;;3.30;2.60;;;;;;;12.04;70.28;97438.59;5096603;28;20187;-84
2022/05/21 01:59:26;;;;;;;3.70;2.53;;;;;;;11.69;71.22;97407.34;5097173;28;20182;-87
2022/05/21 02:01:53;;;;;;;4.60;3.00;;;;;;;11.78;71.79;97432.88;5096146;28;20191;-88
2022/05/21 02:04:21;;;;;;;2.97;2.30;;;;;;;11.68;72.60;97429.00;5081860;28;20214;-95
2022/05/21 02:06:48;;;;;;;4.07;2.60;;;;;;;11.37;72.98;97383.63;5074318;28;20278;-96
2022/05/21 02:09:16;;;;;;;3.20;2.50;;;;;;;11.51;73.54;97402.94;5085320;28;20186;-84
2022/05/21 02:11:44;;;;;;;3.00;2.40;;;;;;;11.44;74.36;97408.38;5088234;28;20233;-91
2022/05/21 02:14:12;;;;;;;3.33;2.50;;;;;;;11.54;73.54;97415.78;5082745;28;20255;-91
2022/05/21 02:16:40;;;;;;;5.00;2.40;;;;;;;11.60;73.26;97418.09;5090829;28;20187;-87
2022/05/21 02:19:09;;;;;;;2.77;2.40;;;;;;;11.33;72.60;97389.84;5095150;28;20252;-95
2022/05/21 02:21:40;;;;;;;2.67;2.37;;;;;;;11.52;72.29;97409.81;5072286;28;20240;-91
2022/05/21 02:24:08;;;;;;;4.47;2.70;;;;;;;11.41;72.47;97400.75;5089724;28;20261;-92
2022/05/21 02:26:38;;;;;;;3.17;2.40;;;;;;;11.30;72.48;97384.81;5068649;28;20218;-89
2022/05/21 02:29:06;;;;;;;3.47;2.70;;;;;;;11.36;72.38;97405.28;5079781;28;20190;-94
2022/05/21 02:31:35;;;;;;;3.07;2.40;;;;;;;11.50;71.85;97406.44;5080962;28;20191;-91
2022/05/21 02:34:03;;;;;;;4.00;2.30;;;;;;;11.59;71.37;97400.84;5065196;28;20270;-94
2022/05/21 02:39:28;;;;;;;3.33;2.20;;;;;;;11.71;70.59;97389.94;5057474;28;20217;-83
2022/05/21 02:42:01;;;;;;;2.37;2.07;;;;;;;12.06;69.75;97407.38;5054813;28;20234;-83
2022/05/21 02:44:33;;;;;;;4.87;2.30;;;;;;;12.08;69.72;97384.78;5056334;28;20256;-85
2022/05/21 02:47:00;;;;;;;2.40;2.20;;;;;;;12.22;69.21;97391.00;5052501;28;20186;-83
2022/05/21 02:49:28;;;;;;;5.37;2.47;;;;;;;12.44;68.05;97388.25;5054447;28;20194;-84
2022/05/21 02:51:57;;;;;;;2.53;1.93;;;;;;;12.78;66.78;97397.84;5053924;28;20193;-88
2022/05/21 02:54:24;;;;;;;3.40;2.20;;;;;;;12.96;66.02;97397.78;5053840;28;20640;-86
2022/05/21 02:56:51;;;;;;;4.93;2.50;;;;;;;12.89;65.85;97396.44;5053282;28;20268;-87
2022/05/21 02:59:19;;;;;;;6.57;2.23;;;;;;;13.01;66.08;97401.03;5051969;28;20198;-84
2022/05/21 03:01:46;;;;;;;3.30;2.33;;;;;;;12.92;65.25;97404.06;5055160;28;20197;-83
2022/05/21 03:04:14;;;;;;;2.97;2.37;;;;;;;12.71;65.43;97401.69;5034410;28;20229;-84
2022/05/21 03:06:41;;;;;;;4.03;2.33;;;;;;;12.58;66.67;97396.22;5054585;28;20560;-84
2022/05/21 03:11:54;;;;;;;5.27;2.47;;;;;;;12.37;67.00;97373.03;5054957;28;20199;-88
2022/05/21 03:14:21;;;;;;;6.10;2.57;;;;;;;11.93;67.44;97375.13;5055307;28;20183;-87
2022/05/21 03:16:48;;;;;;;6.53;2.43;;;;;;;11.83;69.05;97405.00;5037313;28;20248;-87
2022/05/21 03:19:16;;;;;;;6.67;2.50;;;;;;;11.73;69.47;97388.13;5052721;28;20229;-83
2022/05/21 03:21:43;;;;;;;4.63;2.70;;;;;;;11.89;68.94;97396.94;5052608;28;20190;-84
2022/05/21 03:24:13;;;;;;;3.27;2.57;;;;;;;12.00;69.00;97397.25;5037581;28;20229;-92
2022/05/21 03:26:40;;;;;;;6.77;3.90;;;;;;;12.07;69.31;97391.75;5056115;28;20240;-93
2022/05/21 03:29:10;;;;;;;3.23;2.60;;;;;;;12.04;69.08;97372.84;5051114;28;20280;-91
2022/05/21 03:31:38;;;;;;;3.20;2.80;;;;;;;12.22;69.54;97383.22;5051981;28;20246;-90
2022/05/21 03:34:05;;;;;;;5.33;2.43;;;;;;;12.17;70.45;97386.97;5054028;28;20205;-91
2022/05/21 03:36:32;;;;;;;2.97;2.67;;;;;;;12.16;70.86;97387.84;5050779;28;20193;-89
2022/05/21 03:39:01;;;;;;;2.90;2.53;;;;;;;12.52;69.55;97373.16;5039013;28;20183;-85
2022/05/21 03:41:29;;;;;;;3.50;2.50;;;;;;;12.83;68.70;97378.53;5024946;28;20194;-94
2022/05/21 03:43:57;;;;;;;4.70;2.40;;;;;;;12.86;68.06;97375.78;5056342;28;20196;-93
2022/05/21 03:46:25;;;;;;;6.07;2.37;;;;;;;13.26;67.37;97399.81;5052526;28;20193;-90
2022/05/21 03:48:52;;;;;;;3.43;2.30;;;;;;;12.91;67.74;97386.81;5058706;28;20189;-96
2022/05/21 03:51:19;;;;;;;3.50;2.80;;;;;;;12.89;68.49;97404.22;5056903;28;20247;-91
2022/05/21 03:53:46;;;;;;;6.80;2.80;;;;;;;12.83;69.15;97412.34;5058171;28;20196;-88
2022/05/21 03:56:13;;;;;;;2.80;2.50;;;;;;;12.88;68.97;97404.31;5069038;28;20198;-85
2022/05/21 03:58:41;;;;;;;3.60;2.90;;;;;;;13.18;67.31;97402.81;5045301;28;20695;-86
2022/05/21 04:01:09;;;;;;;5.60;2.70;;;;;;;13.49;66.32;97404.69;5074334;28;20216;-85
2022/05/21 04:03:36;;;;;;;3.87;2.53;;;;;;;13.52;66.71;97405.38;5053839;28;20219;-94
2022/05/21 04:06:03;;;;;;;4.60;2.70;;;;;;;13.55;65.88;97397.41;5074123;28;20205;-83
2022/05/21 04:08:32;;;;;;;6.57;2.50;;;;;;;13.79;65.95;97405.69;5074747;28;20261;-84
2022/05/21 04:11:01;;;;;;;2.93;2.30;;;;;;;13.77;64.70;97386.72;5060768;28;20224;-91
2022/05/21 04:13:29;;;;;;;4.70;2.67;;;;;;;14.09;62.96;97401.47;5064931;28;20212;-91
2022/05/21 04:15:56;;;;;;;2.70;2.30;;;;;;;14.10;63.32;97410.97;5044140;28;20243;-92
2022/05/21 04:18:23;;;;;;;3.10;2.13;;;;;;;14.11;62.15;97397.03;5051883;28;20303;-85
2022/05/21 04:20:50;;;;;;;3.03;2.20;;;;;;;14.16;61.53;97383.72;5055078;28;20196;-94
2022/05/21 04:23:17;;;;;;;3.47;2.60;;;;;;;14.44;60.85;97413.47;5054723;28;20444;-96
2022/05/21 04:25:44;;;;;;;3.47;2.67;;;;;;;14.58;60.45;97400.50;5058094;28;20209;-94
2022/05/21 04:28:17;;;;;;;5.13;2.63;;;;;;;14.96;59.15;97394.88;5056431;28;20193;-95
2022/05/21 04:30:44;;;;;;;3.53;2.70;;;;;;;15.16;58.50;97379.75;5069002;28;20198;-87
2022/05/21 04:33:11;;;;;;;7.30;3.13;;;;;;;15.54;56.74;97384.53;5076267;28;20217;-86
2022/05/21 04:38:25;;;;;;;10.33;3.13;;;;;;;16.15;55.44;97393.75;5076443;28;20175;-87
2022/05/21 04:40:56;;;;;;;5.67;3.17;;;;;;;16.13;54.88;97363.41;5076270;28;20171;-94
2022/05/21 04:43:22;;;;;;;5.10;3.33;;;;;;;16.45;54.82;97404.03;5056159;28;20186;-91
2022/05/21 04:45:50;;;;;;;4.60;3.27;;;;;;;16.04;56.09;97390.94;5073656;28;20285;-94
2022/05/21 04:48:17;;;;;;;7.90;3.03;;;;;;;15.84;56.80;97396.56;5066499;28;20190;-90
2022/05/21 04:50:44;;;;;;;5.33;3.60;;;;;;;16.03;56.82;97409.34;5071612;28;20178;-94
2022/05/21 04:53:11;;;;;;;7.43;3.70;;;;;;;16.34;55.55;97380.38;5073317;28;20190;-83
2022/05/21 04:55:38;;;;;;;4.43;3.00;;;;;;;16.86;54.84;97372.63;5065565;28;20187;-88
2022/05/21 04:58:06;;;;;;;3.67;3.10;;;;;;;17.50;53.96;97393.63;5074717;28;20184;-85
2022/05/21 05:00:35;;;;;;;5.70;3.07;;;;;;;17.97;52.85;97384.28;5075202;28;20217;-83
2022/05/21 05:03:11;;;;;;;5.13;2.73;;;;;;;17.99;51.66;97374.53;5074722;28;20222;-92
2022/05/21 05:05:39;;;;;;;7.17;3.33;;;;;;;18.14;52.19;97387.41;5044235;28;20230;-85
2022/05/21 05:08:07;;;;;;;5.13;3.03;;;;;;;18.41;51.56;97392.47;5065176;28;20323;-85
2022/05/21 05:10:36;;;;;;;6.67;3.60;;;;;;;18.58;52.02;97386.91;5060153;28;20903;-89
2022/05/21 05:13:04;;;;;;;4.83;2.93;;;;;;;18.90;49.99;97374.06;5071073;28;20216;-85
2022/05/21 05:15:32;;;;;;;6.87;2.90;;;;;;;19.02;50.26;97387.09;5056774;28;20180;-85
2022/05/21 05:18:00;;;;;;;4.80;2.10;;;;;;;18.92;49.98;97343.31;5053401;28;20236;-84
2022/05/21 05:20:30;;;;;;;7.13;2.70;;;;;;;19.10;50.69;97374.25;5053046;28;20194;-83
2022/05/21 05:22:57;;;;;;;3.73;2.53;;;;;;;18.76;50.25;97330.44;5053687;28;20192;-84
2022/05/21 05:25:25;;;;;;;3.20;2.23;;;;;;;19.28;49.28;97374.66;5052469;28;20251;-84
2022/05/21 05:27:52;;;;;;;4.67;2.97;;;;;;;19.12;49.27;97348.75;5052775;28;20200;-83
2022/05/21 05:30:21;;;;;;;5.80;2.70;;;;;;;19.49;49.53;97367.84;5034419;28;20190;-84
2022/05/21 05:32:49;;;;;;;3.70;2.47;;;;;;;19.34;49.07;97377.72;5053331;28;20279;-84
2022/05/21 05:35:17;;;;;;;5.67;2.90;;;;;;;19.48;49.21;97377.50;5053694;28;20218;-84
2022/05/21 05:37:46;;;;;;;4.33;2.30;;;;;;;19.48;49.43;97348.59;5052193;28;20205;-85
2022/05/21 05:40:18;;;;;;;5.27;3.07;;;;;;;19.82;48.65;97352.09;5034111;28;20291;-84
2022/05/21 05:42:48;;;;;;;6.07;2.80;;;;;;;20.32;46.85;97384.97;5055247;28;20206;-84
2022/05/21 05:45:16;;;;;;;4.00;2.27;;;;;;;20.41;46.69;97386.88;5034317;28;20253;-84
2022/05/21 05:47:45;;;;;;;3.63;2.40;;;;;;;20.59;46.20;97369.59;5055621;28;20705;-83
2022/05/21 05:50:13;;;;;;;5.67;3.27;;;;;;;20.70;45.75;97364.31;5058025;28;20196;-83
2022/05/21 05:52:41;;;;;;;5.00;2.50;;;;;;;20.63;45.08;97336.81;5040583;28;20200;-85
2022/05/21 05:55:25;;;;;;;6.73;2.80;;;;;;;20.88;44.47;97370.72;5056404;28;20341;-85
2022/05/21 05:57:53;;;;;;;7.90;2.50;;;;;;;20.70;44.43;97339.78;5060086;28;20191;-85
2022/05/21 06:00:21;;;;;;;5.13;2.83;;;;;;;21.18;42.79;97367.41;5023499;28;20201;-85
2022/05/21 06:03:03;;;;;;;15.37;2.90;;;;;;;21.31;42.95;97360.13;5022101;28;20192;-85
2022/05/21 06:05:34;;;;;;;6.83;3.07;;;;;;;21.22;42.71;97353.00;5056051;28;20214;-84
2022/05/21 06:08:06;;;;;;;13.17;3.43;;;;;;;21.35;43.37;97358.91;5055238;28;20198;-85
2022/05/21 06:10:40;;;;;;;8.70;3.20;;;;;;;21.15;42.29;97322.03;5034287;28;20211;-84
2022/05/21 06:13:13;;;;;;;3.07;2.37;;;;;;;21.05;42.32;97361.47;5053055;28;20191;-83
2022/05/21 06:15:41;;;;;;;3.63;2.13;;;;;;;21.19;42.76;97362.94;5054616;28;20687;-84
2022/05/21 06:18:19;;;;;;;5.13;3.43;;;;;;;21.39;42.42;97362.16;5053682;28;20238;-84
2022/05/21 06:20:48;;;;;;;4.57;2.60;;;;;;;21.40;42.26;97342.72;5035294;28;20225;-85
2022/05/21 06:23:20;;;;;;;7.83;2.80;;;;;;;21.87;40.95;97355.38;5054207;28;20188;-84
2022/05/21 06:25:49;;;;;;;4.47;3.60;;;;;;;21.92;40.45;97349.69;5068184;28;20225;-85
2022/05/21 06:28:18;;;;;;;6.10;3.10;;;;;;;21.85;40.04;97352.03;5069990;28;20207;-84
2022/05/21 06:30:46;;;;;;;4.43;3.17;;;;;;;21.85;39.69;97346.75;5070287;28;20190;-86
2022/05/21 06:33:21;;;;;;;3.20;2.50;;;;;;;21.89;39.96;97311.22;5052159;28;20207;-84
2022/05/21 06:36:05;;;;;;;3.50;2.53;;;;;;;22.23;39.02;97327.59;5054262;28;20268;-85
2022/05/21 06:38:34;;;;;;;2.47;2.27;;;;;;;21.85;39.80;97288.72;5071671;28;20192;-85
2022/05/21 06:41:03;;;;;;;3.80;2.90;;;;;;;21.99;39.52;97327.91;5069350;28;20200;-92
2022/05/21 06:43:31;;;;;;;2.20;2.00;;;;;;;22.05;39.55;97308.09;5065572;28;20211;-86
2022/05/21 06:45:59;;;;;;;3.87;2.23;;;;;;;22.27;39.70;97323.72;5069010;28;20223;-83
2022/05/21 06:48:27;;;;;;;5.20;2.47;;;;;;;22.36;39.41;97302.63;5070568;28;20185;-83
2022/05/21 06:50:57;;;;;;;3.57;2.20;;;;;;;22.51;38.99;97321.53;5054574;28;20172;-83
2022/05/21 06:53:24;;;;;;;5.77;2.93;;;;;;;22.69;37.88;97321.75;5067354;28;20181;-84
2022/05/21 06:55:54;;;;;;;5.03;2.87;;;;;;;22.71;38.53;97323.25;5068465;28;20201;-84
2022/05/21 06:58:29;;;;;;;3.10;2.07;;;;;;;22.71;39.54;97322.44;5052005;28;20199;-84
2022/05/21 07:01:05;;;;;;;3.80;2.50;;;;;;;22.46;39.07;97316.66;5053527;28;20197;-83
2022/05/21 07:03:33;;;;;;;8.63;3.10;;;;;;;22.61;38.78;97302.13;5071111;28;20189;-85
2022/05/21 07:08:51;;;;;;;3.60;2.67;;;;;;;22.93;38.98;97290.47;5075542;28;20276;-84
2022/05/21 07:11:19;;;;;;;5.27;2.87;;;;;;;23.09;38.63;97301.28;5075341;28;20172;-85
2022/05/21 07:13:46;;;;;;;5.53;3.30;;;;;;;22.95;40.00;97291.16;5075012;28;20194;-85
2022/05/21 07:16:14;;;;;;;4.87;2.97;;;;;;;23.14;38.34;97296.44;5070509;28;20186;-85
2022/05/21 07:18:41;;;;;;;8.83;3.90;;;;;;;23.27;38.20;97281.09;5075075;28;20242;-86
2022/05/21 07:21:18;;;;;;;10.50;4.03;;;;;;;23.47;37.27;97279.28;5070862;28;20220;-83
2022/05/21 07:23:48;;;;;;;5.27;3.00;;;;;;;23.76;36.98;97272.91;5072219;28;20221;-85
2022/05/21 07:26:17;;;;;;;5.60;2.60;;;;;;;23.55;36.27;97268.81;5071569;28;20212;-83
2022/05/21 07:28:46;;;;;;;6.13;3.17;;;;;;;23.01;38.90;97272.09;5050271;28;20209;-87
2022/05/21 07:31:17;;;;;;;5.27;2.80;;;;;;;22.81;37.75;97233.47;5074498;28;20186;-86
2022/05/21 07:33:46;;;;;;;7.83;3.30;;;;;;;23.07;37.73;97282.09;5055165;28;20254;-83
2022/05/21 07:36:14;;;;;;;9.40;4.53;;;;;;;22.95;38.77;97272.66;5051232;28;20194;-85
2022/05/21 07:38:51;;;;;;;6.67;4.00;;;;;;;23.04;38.07;97277.13;5053797;28;20236;-85
2022/05/21 07:41:19;;;;;;;8.97;3.07;;;;;;;23.15;36.75;97274.31;5054879;28;20187;-86
2022/05/21 07:43:50;;;;;;;4.60;2.43;;;;;;;23.28;36.96;97273.03;5071315;28;20186;-85
2022/05/21 07:46:17;;;;;;;10.80;6.60;;;;;;;23.54;36.05;97259.19;5062436;28;20232;-85
2022/05/21 07:48:46;;;;;;;4.73;2.90;;;;;;;23.75;35.85;97255.38;5053091;28;20195;-84
2022/05/21 07:51:15;;;;;;;6.07;3.90;;;;;;;23.80;35.82;97228.50;5062862;28;20226;-85
2022/05/21 07:53:45;;;;;;;8.10;3.30;;;;;;;23.82;35.46;97261.72;5057005;28;20191;-84
2022/05/21 07:56:16;;;;;;;4.33;2.23;;;;;;;23.78;35.18;97233.09;5056139;28;20190;-83
2022/05/21 07:58:43;;;;;;;6.03;2.50;;;;;;;23.70;35.16;97228.50;5058770;28;20195;-83
2022/05/21 08:01:12;;;;;;;6.53;2.60;;;;;;;23.93;34.24;97242.19;5060622;28;20623;-83
2022/05/21 08:03:46;;;;;;;3.87;2.10;;;;;;;23.97;34.83;97227.69;5055242;28;20188;-85
2022/05/21 08:06:17;;;;;;;3.60;2.10;;;;;;;23.84;35.22;97228.06;5056188;28;20260;-89
2022/05/21 08:08:54;;;;;;;4.60;2.43;;;;;;;23.89;33.99;97230.22;5056358;28;20292;-84
2022/05/21 08:11:21;;;;;;;3.73;2.00;;;;;;;23.83;33.80;97226.38;5058643;28;20214;-84
2022/05/21 08:13:52;;;;;;;2.60;1.70;;;;;;;23.73;33.47;97207.06;5047439;28;20263;-84
2022/05/21 08:16:23;;;;;;;4.57;2.30;;;;;;;23.93;33.96;97243.03;5049790;28;20190;-83
2022/05/21 08:19:16;;;;;;;5.67;1.90;;;;;;;23.89;33.63;97223.13;5072370;28;20311;-86
2022/05/21 08:21:49;;;;;;;3.07;2.27;;;;;;;23.96;33.83;97223.38;5075957;28;20170;-84
2022/05/21 08:27:05;;;;;;;4.10;2.17;;;;;;;24.00;33.25;97196.47;5072031;28;20216;-83
2022/05/21 08:29:36;;;;;;;10.10;2.47;;;;;;;24.26;33.62;97183.38;5076127;28;20191;-83
2022/05/21 08:32:04;;;;;;;3.77;3.30;;;;;;;24.49;33.39;97203.13;5076984;28;20186;-83
2022/05/21 08:34:31;;;;;;;23.03;6.83;;;;;;;24.28;32.81;97186.69;5075263;28;20172;-84
2022/05/21 08:37:01;;;;;;;8.20;2.20;;;;;;;24.24;33.12;97177.38;5074960;28;20547;-83
2022/05/21 08:39:30;;;;;;;3.37;1.67;;;;;;;24.49;32.89;97215.50;5074418;28;20188;-84
2022/05/21 08:42:14;;;;;;;2.17;1.70;;;;;;;24.39;32.26;97194.41;5042994;28;20189;-82
2022/05/21 08:44:50;;;;;;;3.00;1.97;;;;;;;24.64;32.89;97198.94;5058350;28;20187;-83
2022/05/21 08:47:35;;;;;;;3.83;2.70;;;;;;;24.82;33.20;97205.09;5060085;28;20250;-84
2022/05/21 08:50:09;;;;;;;3.77;1.80;;;;;;;24.88;32.47;97196.50;5059734;28;20658;-83
2022/05/21 08:52:51;;;;;;;2.07;1.77;;;;;;;24.85;32.94;97162.38;5058105;28;20187;-83
2022/05/21 08:55:23;;;;;;;3.23;1.70;;;;;;;25.12;32.42;97176.47;5054331;28;20200;-82
2022/05/21 08:57:56;;;;;;;4.20;2.60;;;;;;;25.23;32.46;97171.72;5053169;28;20220;-83
2022/05/21 09:00:30;;;;;;;5.13;1.87;;;;;;;25.13;32.65;97143.66;5051925;28;20197;-83
2022/05/21 09:03:00;;;;;;;3.03;2.00;;;;;;;25.27;32.31;97161.63;5040397;28;20200;-83
2022/05/21 09:05:29;;;;;;;2.97;2.20;;;;;;;25.34;32.15;97178.56;5055666;28;20208;-83
2022/05/21 09:08:11;;;;;;;4.43;2.07;;;;;;;25.36;32.16;97169.47;5052257;28;20200;-85
2022/05/21 09:10:43;;;;;;;5.47;2.40;;;;;;;25.69;31.79;97171.31;5057579;28;20300;-83
2022/05/21 09:13:24;;;;;;;2.67;1.70;;;;;;;25.71;31.53;97176.47;5048766;28;20280;-84
2022/05/21 09:16:54;;;;;;;3.13;2.07;;;;;;;25.94;31.76;97169.56;5054184;28;20216;-83
2022/05/21 09:20:19;;;;;;;4.30;3.03;;;;;;;25.98;31.70;97162.94;5051580;28;20585;-82
2022/05/21 09:23:40;;;;;;;3.13;1.93;;;;;;;26.08;31.52;97162.81;5051200;28;20201;-84
2022/05/21 09:27:05;;;;;;;3.13;2.20;;;;;;;26.02;31.27;97160.78;5053174;28;20225;-84
2022/05/21 09:30:11;;;;;;;3.87;2.03;;;;;;;25.66;30.53;97157.53;5050357;28;20599;-83
2022/05/21 09:33:30;;;;;;;3.77;2.17;;;;;;;25.70;31.39;97143.78;5037060;28;20208;-84
2022/05/21 09:36:54;;;;;;;3.53;1.70;;;;;;;25.83;30.59;97151.28;5056161;28;20197;-84
2022/05/21 09:40:16;;;;;;;7.50;3.20;;;;;;;26.06;31.41;97140.88;5058819;28;20263;-83
2022/05/21 09:46:40;;;;;;;5.00;2.43;;;;;;;26.46;30.59;97148.94;5056893;28;20263;-84
2022/05/21 09:49:30;;;;;;;4.63;2.00;;;;;;;26.62;29.93;97138.31;5041023;28;20701;-83
2022/05/21 09:52:01;;;;;;;1.70;1.60;;;;;;;25.94;30.22;97118.31;5058925;28;20200;-82
2022/05/21 09:54:42;;;;;;;3.10;1.60;;;;;;;25.66;30.40;97110.59;5057197;28;20253;-84
2022/05/21 09:57:30;;;;;;;3.33;2.33;;;;;;;25.93;30.21;97117.47;5056729;28;20263;-84
2022/05/21 10:00:28;;;;;;;3.17;1.80;;;;;;;26.46;29.30;97130.34;5056384;28;20194;-83
2022/05/21 10:02:59;;;;;;;4.07;2.00;;;;;;;26.52;29.52;97113.75;5059296;28;20277;-83
2022/05/21 10:05:49;;;;;;;3.97;2.20;;;;;;;26.66;29.06;97099.78;5020931;28;20289;-85
2022/05/21 10:11:30;;;;;;;4.43;2.70;;;;;;;27.17;29.32;97107.31;5054350;28;20190;-85
2022/05/21 10:14:23;;;;;;;2.50;1.43;;;;;;;27.28;28.78;97111.44;5036856;28;20198;-84
2022/05/21 10:16:57;;;;;;;2.83;1.60;;;;;;;27.33;29.44;97112.59;5045792;28;20224;-84
2022/05/21 10:20:04;;;;;;;2.20;1.67;;;;;;;26.90;30.05;97072.34;5051931;28;20239;-84
2022/05/21 10:23:10;;;;;;;3.53;2.00;;;;;;;26.98;29.20;97099.72;5055087;28;20681;-84
2022/05/21 10:25:52;;;;;;;4.20;1.90;;;;;;;26.95;28.49;97093.94;5052798;28;20186;-85
2022/05/21 10:28:57;;;;;;;1.87;1.50;;;;;;;26.99;27.04;97098.75;5053396;28;20194;-85
2022/05/21 10:31:36;;;;;;;2.83;1.53;;;;;;;26.51;28.21;97090.81;5050292;28;20194;-86
2022/05/21 10:34:23;;;;;;;12.17;4.87;;;;;;;26.66;28.25;97093.63;5033400;28;20248;-87
2022/05/21 10:37:26;;;;;;;4.07;2.87;;;;;;;26.83;28.05;97082.81;5046948;28;20194;-88
2022/05/21 10:40:25;;;;;;;6.87;2.13;;;;;;;27.01;26.68;97074.63;5049173;28;20969;-83
2022/05/21 10:43:04;;;;;;;2.77;1.53;;;;;;;27.16;26.87;97068.41;5053017;28;20216;-83
2022/05/21 10:45:42;;;;;;;4.93;1.77;;;;;;;27.38;25.79;97064.22;5041422;28;20273;-86
2022/05/21 10:48:27;;;;;;;5.23;2.10;;;;;;;27.50;28.00;97048.69;5038686;28;20193;-83
2022/05/21 10:51:19;;;;;;;3.00;1.50;;;;;;;27.32;28.41;97060.41;5053205;28;20220;-85
2022/05/21 10:53:55;;;;;;;1.77;1.67;;;;;;;27.30;28.18;97041.13;5058098;28;20216;-86
2022/05/21 10:56:44;;;;;;;13.20;6.37;;;;;;;27.47;27.86;97067.69;5057844;28;20194;-84
2022/05/21 10:59:24;;;;;;;4.60;2.20;;;;;;;27.69;25.45;97048.25;5056666;28;20193;-86
2022/05/21 11:02:30;;;;;;;3.23;1.70;;;;;;;27.64;25.16;97019.50;5039431;28;20591;-84
2022/05/21 11:05:36;;;;;;;2.97;1.70;;;;;;;27.98;24.28;97061.72;5019136;28;20257;-84
2022/05/21 11:08:07;;;;;;;4.67;2.07;;;;;;;28.14;24.26;97054.44;5056849;28;20206;-84
2022/05/21 11:11:01;;;;;;;3.93;1.80;;;;;;;28.09;24.03;97046.16;5056116;28;20189;-84
2022/05/21 11:13:48;;;;;;;3.10;1.37;;;;;;;28.22;24.64;97058.88;5057185;28;20311;-85
2022/05/21 11:16:31;;;;;;;2.13;1.40;;;;;;;27.82;24.73;97022.69;5056875;28;20182;-84
2022/05/21 11:19:15;;;;;;;2.77;1.70;;;;;;;28.04;24.87;97034.38;5055848;28;20226;-84
2022/05/21 11:22:02;;;;;;;1.77;1.40;;;;;;;28.11;24.63;97028.16;5055872;28;20185;-84
2022/05/21 11:24:40;;;;;;;3.03;1.30;;;;;;;28.30;24.82;97037.50;5036589;28;20261;-83
2022/05/21 11:27:24;;;;;;;2.17;1.83;;;;;;;28.16;25.86;97041.78;5055578;28;20222;-84
2022/05/21 11:29:59;;;;;;;2.50;1.30;;;;;;;27.89;25.38;97026.31;5054921;28;20208;-86
2022/05/21 11:38:35;;;;;;;3.93;1.43;;;;;;;27.92;25.14;97031.28;5055798;28;20194;-85
2022/05/21 11:41:25;;;;;;;2.33;1.20;;;;;;;28.07;25.30;97020.69;5051691;28;20190;-84
2022/05/21 11:46:48;;;;;;;2.30;1.10;;;;;;;27.69;26.57;97011.81;5056939;28;20225;-85
2022/05/21 11:49:32;;;;;;;2.67;1.20;;;;;;;28.04;26.20;97005.94;5077436;28;20197;-83
2022/05/21 11:52:27;;;;;;;4.93;1.70;;;;;;;28.35;26.71;97002.31;5075485;28;20183;-83
2022/05/21 11:54:57;;;;;;;3.00;1.10;;;;;;;28.44;26.42;96991.38;5055476;28;20225;-85
2022/05/21 11:57:41;;;;;;;3.87;1.50;;;;;;;28.15;26.07;96970.06;5052420;28;20182;-84
2022/05/21 12:00:19;;;;;;;2.00;1.27;;;;;;;28.14;25.48;96979.88;5052156;28;20643;-84
2022/05/21 12:03:02;;;;;;;1.33;1.10;;;;;;;28.16;25.83;96971.69;5050801;28;20194;-83
2022/05/21 12:05:40;;;;;;;1.77;1.10;;;;;;;28.31;25.49;96979.72;5049875;28;20676;-86
2022/05/21 12:08:23;;;;;;;4.10;1.20;;;;;;;28.07;26.42;96964.78;5051983;28;20250;-83
2022/05/21 12:11:10;;;;;;;2.40;1.50;;;;;;;28.23;26.25;96964.66;5050132;28;20197;-84
2022/05/21 12:13:40;;;;;;;4.13;1.60;;;;;;;28.39;25.81;96948.50;5051731;28;20192;-84
2022/05/21 12:16:16;;;;;;;4.50;1.67;;;;;;;28.51;25.88;96949.69;5051566;28;20217;-85
2022/05/21 12:18:44;;;;;;;2.53;1.30;;;;;;;28.13;25.56;96898.28;5050520;28;20232;-86
2022/05/21 12:24:42;;;;;;;2.63;1.30;;;;;;;28.33;26.04;96911.91;5030917;28;20194;-84
2022/05/21 12:27:22;;;;;;;2.63;1.30;;;;;;;28.43;26.06;96925.78;4997985;28;20286;-85
2022/05/21 12:30:00;;;;;;;2.40;1.43;;;;;;;28.54;26.36;96927.19;5017143;28;20225;-85
2022/05/21 12:32:30;;;;;;;3.23;1.50;;;;;;;28.38;26.24;96900.72;5046400;28;20198;-83
2022/05/21 12:35:23;;;;;;;4.50;1.40;;;;;;;28.64;26.15;96911.75;5044653;28;20198;-84
2022/05/21 12:38:07;;;;;;;2.23;1.10;;;;;;;28.63;26.58;96912.75;5061943;28;20240;-84
2022/05/21 12:40:59;;;;;;;4.37;2.30;;;;;;;28.71;26.83;96902.00;5057900;28;20198;-84
2022/05/21 12:43:56;;;;;;;2.90;1.23;;;;;;;28.82;26.24;96899.69;5024605;28;20369;-84
2022/05/21 12:46:32;;;;;;;2.93;1.63;;;;;;;28.93;26.20;96885.84;5056693;28;20225;-84
2022/05/21 12:49:04;;;;;;;3.23;1.90;;;;;;;28.73;25.64;96859.97;5058979;28;20225;-85